createdAt,value
2022-12-18T00:01:33.037Z,97366.97
2022-12-18T00:04:02.767Z,97368.50
2022-12-18T00:06:31.609Z,97368.50
2022-12-18T00:09:00.183Z,97362.81
2022-12-18T00:11:29.925Z,97378.44
2022-12-18T00:14:01.299Z,97384.66
2022-12-18T00:16:31.161Z,97389.34
2022-12-18T00:19:01.712Z,97378.56
2022-12-18T00:21:31.493Z,97387.78
2022-12-18T00:23:59.785Z,97383.94
2022-12-18T00:26:29.956Z,97394.84
2022-12-18T00:29:03.071Z,97391.69
2022-12-18T00:31:31.453Z,97392.34
2022-12-18T00:33:59.477Z,97409.09
2022-12-18T00:36:29.738Z,97406.59
2022-12-18T00:39:00.393Z,97375.66
2022-12-18T00:42:01.227Z,97390.03
2022-12-18T00:44:33.000Z,97384.91
2022-12-18T00:47:00.864Z,97398.03
2022-12-18T00:49:28.672Z,97390.31
2022-12-18T00:51:56.542Z,97383.13
2022-12-18T00:54:24.507Z,97392.22
2022-12-18T00:56:52.789Z,97394.13
2022-12-18T00:59:20.800Z,97399.53
2022-12-18T01:01:50.099Z,97398.44
2022-12-18T01:04:18.106Z,97396.06
2022-12-18T01:06:45.918Z,97399.69
2022-12-18T01:09:14.138Z,97405.63
2022-12-18T01:11:42.147Z,97402.72
2022-12-18T01:14:09.963Z,97403.94
2022-12-18T01:16:37.841Z,97414.03
2022-12-18T01:19:07.338Z,97413.75
2022-12-18T01:21:35.528Z,97416.53
2022-12-18T01:24:03.417Z,97409.66
2022-12-18T01:26:31.578Z,97423.28
2022-12-18T01:29:00.034Z,97428.00
2022-12-18T01:31:30.918Z,97418.88
2022-12-18T01:34:00.180Z,97422.31
2022-12-18T01:36:31.111Z,97434.19
2022-12-18T01:39:01.355Z,97430.88
2022-12-18T01:41:52.728Z,97425.38
2022-12-18T01:45:03.286Z,97437.78
2022-12-18T01:47:43.382Z,97434.34
2022-12-18T01:50:17.967Z,97441.13
2022-12-18T01:52:51.165Z,97438.59
2022-12-18T01:55:22.839Z,97427.75
2022-12-18T01:57:53.661Z,97442.59
2022-12-18T02:00:23.958Z,97441.91
2022-12-18T02:02:52.012Z,97435.28
2022-12-18T02:05:36.208Z,97434.66
2022-12-18T02:08:12.881Z,97455.94
2022-12-18T02:10:49.222Z,97437.06
2022-12-18T02:13:22.714Z,97442.59
2022-12-18T02:15:58.916Z,97437.19
2022-12-18T02:18:32.402Z,97441.63
2022-12-18T02:21:07.085Z,97439.69
2022-12-18T02:23:49.418Z,97440.81
2022-12-18T02:26:22.657Z,97435.03
2022-12-18T02:28:56.647Z,97443.31
2022-12-18T02:31:28.780Z,97436.09
2022-12-18T02:34:01.099Z,97449.25
2022-12-18T02:36:30.459Z,97447.22
2022-12-18T02:39:00.319Z,97443.56
2022-12-18T02:41:30.645Z,97446.38
2022-12-18T02:44:00.143Z,97427.69
2022-12-18T02:46:33.401Z,97439.84
2022-12-18T02:49:10.472Z,97441.41
2022-12-18T02:51:48.706Z,97446.22
2022-12-18T02:54:27.061Z,97445.03
2022-12-18T02:56:59.796Z,97445.94
2022-12-18T02:59:33.861Z,97445.34
2022-12-18T03:02:07.942Z,97452.56
2022-12-18T03:04:42.379Z,97451.63
2022-12-18T03:07:17.566Z,97449.13
2022-12-18T03:09:49.900Z,97460.47
2022-12-18T03:12:26.221Z,97460.75
2022-12-18T03:15:01.487Z,97449.09
2022-12-18T03:17:32.137Z,97466.94
2022-12-18T03:20:05.336Z,97466.09
2022-12-18T03:22:35.961Z,97473.09
2022-12-18T03:25:07.920Z,97475.34
2022-12-18T03:27:40.037Z,97477.78
2022-12-18T03:30:13.118Z,97471.09
2022-12-18T03:32:45.276Z,97453.63
2022-12-18T03:35:16.404Z,97475.59
2022-12-18T03:37:44.175Z,97485.22
2022-12-18T03:40:12.948Z,97483.47
2022-12-18T03:42:48.841Z,97472.69
2022-12-18T03:45:25.316Z,97477.00
2022-12-18T03:48:03.163Z,97482.06
2022-12-18T03:50:40.091Z,97482.25
2022-12-18T03:53:18.041Z,97481.75
2022-12-18T03:55:46.927Z,97494.75
2022-12-18T03:58:20.391Z,97498.22
2022-12-18T04:00:52.272Z,97497.41
2022-12-18T04:03:25.441Z,97500.03
2022-12-18T04:05:56.901Z,97500.16
2022-12-18T04:08:26.835Z,97496.25
2022-12-18T04:10:54.629Z,97493.44
2022-12-18T04:13:30.355Z,97503.38
2022-12-18T04:15:58.378Z,97499.84
2022-12-18T04:18:26.762Z,97501.75
2022-12-18T04:20:55.095Z,97499.72
2022-12-18T04:23:23.914Z,97507.28
2022-12-18T04:25:51.784Z,97509.13
2022-12-18T04:28:19.872Z,97510.88
2022-12-18T04:30:49.345Z,97510.03
2022-12-18T04:33:20.415Z,97518.34
2022-12-18T04:35:48.669Z,97519.22
2022-12-18T04:38:16.516Z,97529.16
2022-12-18T04:40:44.538Z,97526.41
2022-12-18T04:43:12.421Z,97510.38
2022-12-18T04:45:40.846Z,97519.22
2022-12-18T04:48:10.325Z,97520.31
2022-12-18T04:50:38.608Z,97528.91
2022-12-18T04:53:06.446Z,97532.50
2022-12-18T04:55:34.474Z,97533.44
2022-12-18T04:58:02.279Z,97528.91
2022-12-18T05:00:30.130Z,97525.69
2022-12-18T05:02:57.997Z,97518.09
2022-12-18T05:05:27.529Z,97517.81
2022-12-18T05:07:55.312Z,97510.38
2022-12-18T05:10:23.111Z,97515.63
2022-12-18T05:13:03.089Z,97517.81
2022-12-18T05:15:31.483Z,97516.00
2022-12-18T05:17:59.360Z,97512.84
2022-12-18T05:20:29.664Z,97513.28
2022-12-18T05:22:58.212Z,97512.31
2022-12-18T05:25:26.024Z,97511.97
2022-12-18T05:27:54.075Z,97523.88
2022-12-18T05:30:21.868Z,97511.72
2022-12-18T05:32:49.615Z,97522.53
2022-12-18T05:35:17.473Z,97528.34
2022-12-18T05:37:46.996Z,97534.84
2022-12-18T05:40:15.098Z,97535.97
2022-12-18T05:42:42.998Z,97541.03
2022-12-18T05:45:11.362Z,97519.44
2022-12-18T05:47:39.158Z,97533.22
2022-12-18T05:50:08.489Z,97539.31
2022-12-18T05:52:36.274Z,97532.03
2022-12-18T05:55:06.168Z,97531.22
2022-12-18T05:57:34.345Z,97525.78
2022-12-18T06:00:02.144Z,97528.59
2022-12-18T06:02:30.085Z,97527.75
2022-12-18T06:04:58.255Z,97527.91
2022-12-18T06:07:26.030Z,97534.50
2022-12-18T06:09:53.959Z,97536.34
2022-12-18T06:12:23.298Z,97534.69
2022-12-18T06:14:51.038Z,97522.69
2022-12-18T06:17:18.762Z,97549.06
2022-12-18T06:19:46.820Z,97551.31
2022-12-18T06:22:14.606Z,97551.69
2022-12-18T06:24:42.439Z,97555.56
2022-12-18T06:27:10.694Z,97560.66
2022-12-18T06:29:39.789Z,97564.66
2022-12-18T06:32:07.934Z,97566.16
2022-12-18T06:34:36.517Z,97558.56
2022-12-18T06:37:04.231Z,97560.09
2022-12-18T06:39:32.408Z,97550.56
2022-12-18T06:42:00.267Z,97559.00
2022-12-18T06:44:28.044Z,97558.75
2022-12-18T06:46:57.260Z,97545.72
2022-12-18T06:49:30.319Z,97562.28
2022-12-18T06:51:58.740Z,97572.75
2022-12-18T06:54:26.492Z,97577.47
2022-12-18T06:56:54.212Z,97588.16
2022-12-18T06:59:21.926Z,97587.69
2022-12-18T07:01:50.027Z,97574.69
2022-12-18T07:04:19.243Z,97589.06
2022-12-18T07:06:47.151Z,97595.41
2022-12-18T07:09:14.927Z,97596.59
2022-12-18T07:11:42.652Z,97603.22
2022-12-18T07:14:10.414Z,97600.88
2022-12-18T07:16:38.234Z,97598.78
2022-12-18T07:19:06.055Z,97603.50
2022-12-18T07:21:35.221Z,97610.25
2022-12-18T07:24:03.123Z,97603.56
2022-12-18T07:26:32.094Z,97618.97
2022-12-18T07:29:00.155Z,97622.81
2022-12-18T07:31:28.631Z,97623.38
2022-12-18T07:33:57.679Z,97626.13
2022-12-18T07:36:25.562Z,97625.91
2022-12-18T07:38:54.794Z,97625.06
2022-12-18T07:41:22.911Z,97630.31
2022-12-18T07:43:51.093Z,97625.34
2022-12-18T07:46:19.047Z,97625.91
2022-12-18T07:48:49.336Z,97627.84
2022-12-18T07:51:18.909Z,97633.25
2022-12-18T07:53:46.954Z,97634.13
2022-12-18T07:56:27.845Z,97631.91
2022-12-18T07:58:57.117Z,97636.63
2022-12-18T08:01:25.287Z,97635.88
2022-12-18T08:03:53.273Z,97642.66
2022-12-18T08:06:22.473Z,97642.44
2022-12-18T08:08:53.423Z,97645.25
2022-12-18T08:11:23.379Z,97643.84
2022-12-18T08:13:51.226Z,97642.16
2022-12-18T08:16:20.006Z,97646.44
2022-12-18T08:18:49.497Z,97651.81
2022-12-18T08:21:19.095Z,97644.69
2022-12-18T08:23:48.941Z,97656.72
2022-12-18T08:26:17.117Z,97653.38
2022-12-18T08:28:46.603Z,97651.19
2022-12-18T08:31:14.395Z,97654.78
2022-12-18T08:33:44.414Z,97656.06
2022-12-18T08:36:13.043Z,97658.97
2022-12-18T08:38:41.062Z,97655.66
2022-12-18T08:41:12.510Z,97662.84
2022-12-18T08:43:57.766Z,97666.19
2022-12-18T08:46:30.083Z,97657.63
2022-12-18T08:48:58.513Z,97662.03
2022-12-18T08:51:26.291Z,97655.16
2022-12-18T08:53:54.019Z,97666.47
2022-12-18T08:56:21.717Z,97667.13
2022-12-18T08:58:49.498Z,97660.34
2022-12-18T09:01:17.384Z,97651.13
2022-12-18T09:03:46.628Z,97645.03
2022-12-18T09:06:17.150Z,97644.06
2022-12-18T09:08:45.426Z,97641.03
2022-12-18T09:11:15.854Z,97632.03
2022-12-18T09:13:43.715Z,97632.88
2022-12-18T09:16:11.761Z,97635.78
2022-12-18T09:18:39.895Z,97627.19
2022-12-18T09:21:14.409Z,97628.28
2022-12-18T09:23:42.496Z,97627.59
2022-12-18T09:26:10.652Z,97626.97
2022-12-18T09:28:38.785Z,97620.78
2022-12-18T09:31:08.935Z,97625.69
2022-12-18T09:33:37.629Z,97631.56
2022-12-18T09:36:08.682Z,97627.28
2022-12-18T09:38:38.493Z,97635.81
2022-12-18T09:41:17.811Z,97648.38
2022-12-18T09:43:49.493Z,97640.19
2022-12-18T09:46:21.245Z,97633.19
2022-12-18T09:48:53.273Z,97637.88
2022-12-18T09:51:22.336Z,97642.72
2022-12-18T09:53:57.717Z,97636.22
2022-12-18T09:56:30.635Z,97643.44
2022-12-18T09:59:01.608Z,97614.63
2022-12-18T10:01:41.365Z,97636.38
2022-12-18T10:04:11.518Z,97636.22
2022-12-18T10:06:47.097Z,97638.44
2022-12-18T10:09:26.256Z,97642.03
2022-12-18T10:12:01.326Z,97638.22
2022-12-18T10:14:36.543Z,97642.34
2022-12-18T10:17:12.150Z,97650.53
2022-12-18T10:19:50.561Z,97646.81
2022-12-18T10:22:29.954Z,97647.19
2022-12-18T10:25:05.475Z,97653.03
2022-12-18T10:27:34.681Z,97641.59
2022-12-18T10:30:13.972Z,97649.81
2022-12-18T10:32:41.882Z,97651.16
2022-12-18T10:35:17.355Z,97647.00
2022-12-18T10:38:07.609Z,97649.19
2022-12-18T10:40:51.691Z,97640.53
2022-12-18T10:43:23.969Z,97644.50
2022-12-18T10:46:04.022Z,97637.75
2022-12-18T10:48:33.088Z,97640.84
2022-12-18T10:51:12.233Z,97648.44
2022-12-18T10:53:43.886Z,97664.09
2022-12-18T10:56:14.166Z,97625.53
2022-12-18T10:58:42.436Z,97664.81
2022-12-18T11:01:13.339Z,97662.59
2022-12-18T11:03:43.540Z,97666.09
2022-12-18T11:06:13.633Z,97661.91
2022-12-18T11:08:43.361Z,97656.56
2022-12-18T11:11:22.574Z,97653.84
2022-12-18T11:14:01.752Z,97649.50
2022-12-18T11:16:32.182Z,97641.78
2022-12-18T11:19:15.362Z,97637.25
2022-12-18T11:21:44.072Z,97625.19
2022-12-18T11:24:23.057Z,97629.56
2022-12-18T11:26:59.312Z,97619.53
2022-12-18T11:29:34.178Z,97618.75
2022-12-18T11:32:32.113Z,97614.25
2022-12-18T11:35:06.622Z,97601.22
2022-12-18T11:37:35.577Z,97601.75
2022-12-18T11:40:11.545Z,97600.09
2022-12-18T11:42:48.009Z,97605.31
2022-12-18T11:45:31.973Z,97601.91
2022-12-18T11:48:04.762Z,97594.59
2022-12-18T11:50:45.430Z,97594.13
2022-12-18T11:53:14.266Z,97594.50
2022-12-18T11:55:49.730Z,97596.09
2022-12-18T11:58:31.521Z,97600.03
2022-12-18T12:01:09.911Z,97604.44
2022-12-18T12:04:03.517Z,97606.78
2022-12-18T12:06:40.903Z,97601.88
2022-12-18T12:09:20.400Z,97610.25
2022-12-18T12:11:59.740Z,97603.56
2022-12-18T12:14:43.981Z,97599.94
2022-12-18T12:17:16.756Z,97596.03
2022-12-18T12:19:54.917Z,97602.88
2022-12-18T12:22:30.416Z,97590.31
2022-12-18T12:25:18.450Z,97589.03
2022-12-18T12:27:57.299Z,97588.66
2022-12-18T12:30:32.736Z,97572.69
2022-12-18T12:33:15.250Z,97575.88
2022-12-18T12:35:51.770Z,97582.28
2022-12-18T12:38:25.835Z,97588.06
2022-12-18T12:41:03.085Z,97580.66
2022-12-18T12:43:39.181Z,97573.91
2022-12-18T12:46:12.775Z,97570.63
2022-12-18T12:48:45.595Z,97572.75
2022-12-18T12:51:18.358Z,97561.19
2022-12-18T12:53:47.223Z,97562.06
2022-12-18T12:56:17.904Z,97550.47
2022-12-18T12:58:54.651Z,97558.56
2022-12-18T13:01:34.849Z,97560.50
2022-12-18T13:04:21.517Z,97557.03
2022-12-18T13:06:55.893Z,97538.81
2022-12-18T13:09:23.851Z,97557.50
2022-12-18T13:12:08.905Z,97561.41
2022-12-18T13:14:38.805Z,97564.25
2022-12-18T13:17:33.051Z,97567.88
2022-12-18T13:20:11.100Z,97560.69
2022-12-18T13:22:42.515Z,97576.22
2022-12-18T13:25:40.344Z,97561.31
2022-12-18T13:28:17.633Z,97564.47
2022-12-18T13:30:59.510Z,97560.09
2022-12-18T13:34:25.599Z,97562.75
2022-12-18T13:36:55.218Z,97548.56
2022-12-18T13:39:35.237Z,97568.13
2022-12-18T13:42:57.724Z,97570.88
2022-12-18T13:45:40.238Z,97562.31
2022-12-18T13:48:18.746Z,97554.97
2022-12-18T13:50:55.189Z,97569.38
2022-12-18T13:53:25.857Z,97571.28
2022-12-18T13:55:53.990Z,97558.97
2022-12-18T13:58:22.075Z,97564.66
2022-12-18T14:00:50.527Z,97566.81
2022-12-18T14:03:24.237Z,97562.91
2022-12-18T14:06:00.983Z,97561.81
2022-12-18T14:08:36.575Z,97569.44
2022-12-18T14:11:07.964Z,97563.38
2022-12-18T14:13:40.456Z,97571.50
2022-12-18T14:16:10.073Z,97560.25
2022-12-18T14:18:45.961Z,97567.47
2022-12-18T14:21:24.354Z,97567.59
2022-12-18T14:24:05.834Z,97577.47
2022-12-18T14:26:34.950Z,97577.31
2022-12-18T14:29:19.491Z,97570.81
2022-12-18T14:31:48.412Z,97569.81
2022-12-18T14:34:18.400Z,97565.34
2022-12-18T14:36:56.869Z,97573.94
2022-12-18T14:39:26.332Z,97572.47
2022-12-18T14:41:55.329Z,97566.13
2022-12-18T14:44:23.886Z,97571.34
2022-12-18T14:46:54.186Z,97566.81
2022-12-18T14:49:26.962Z,97568.91
2022-12-18T14:51:56.589Z,97574.47
2022-12-18T14:54:27.404Z,97566.72
2022-12-18T14:57:02.860Z,97564.81
2022-12-18T14:59:32.494Z,97574.25
2022-12-18T15:02:05.890Z,97570.38
2022-12-18T15:04:36.248Z,97567.91
2022-12-18T15:07:10.228Z,97554.59
2022-12-18T15:09:39.038Z,97569.03
2022-12-18T15:12:07.263Z,97556.75
2022-12-18T15:14:40.737Z,97563.53
2022-12-18T15:17:18.606Z,97572.22
2022-12-18T15:19:47.575Z,97563.41
2022-12-18T15:22:25.019Z,97557.47
2022-12-18T15:24:53.761Z,97560.78
2022-12-18T15:27:24.552Z,97569.09
2022-12-18T15:30:23.789Z,97573.53
2022-12-18T15:32:52.748Z,97574.66
2022-12-18T15:35:23.519Z,97578.50
2022-12-18T15:37:54.144Z,97557.22
2022-12-18T15:40:24.151Z,97574.38
2022-12-18T15:43:13.635Z,97576.56
2022-12-18T15:45:41.822Z,97574.09
2022-12-18T15:48:24.371Z,97567.47
2022-12-18T15:50:53.686Z,97569.94
2022-12-18T15:53:23.092Z,97578.50
2022-12-18T15:56:08.576Z,97566.88
2022-12-18T15:58:36.328Z,97581.94
2022-12-18T16:01:04.251Z,97579.31
2022-12-18T16:03:32.123Z,97582.31
2022-12-18T16:06:02.943Z,97564.97
2022-12-18T16:08:33.841Z,97575.47
2022-12-18T16:11:02.687Z,97572.44
2022-12-18T16:13:30.434Z,97574.22
2022-12-18T16:15:58.487Z,97571.59
2022-12-18T16:18:26.627Z,97577.81
2022-12-18T16:20:54.770Z,97585.16
2022-12-18T16:23:22.948Z,97589.16
2022-12-18T16:25:52.662Z,97594.00
2022-12-18T16:28:20.468Z,97591.50
2022-12-18T16:30:48.293Z,97591.75
2022-12-18T16:33:16.303Z,97579.59
2022-12-18T16:35:44.445Z,97585.97
2022-12-18T16:38:12.260Z,97594.25
2022-12-18T16:41:01.817Z,97586.81
2022-12-18T16:43:31.038Z,97587.34
2022-12-18T16:46:00.890Z,97578.78
2022-12-18T16:48:28.640Z,97578.66
2022-12-18T16:51:02.645Z,97579.47
2022-12-18T16:53:30.925Z,97580.03
2022-12-18T16:55:59.841Z,97577.25
2022-12-18T16:58:27.725Z,97567.31
2022-12-18T17:00:57.188Z,97568.56
2022-12-18T17:03:25.432Z,97561.09
2022-12-18T17:05:53.469Z,97538.69
2022-12-18T17:08:21.491Z,97558.47
2022-12-18T17:10:49.253Z,97561.63
2022-12-18T17:13:20.219Z,97564.13
2022-12-18T17:15:51.293Z,97571.59
2022-12-18T17:18:21.456Z,97569.25
2022-12-18T17:20:49.213Z,97546.44
2022-12-18T17:23:17.082Z,97568.41
2022-12-18T17:25:45.190Z,97565.53
2022-12-18T17:28:13.197Z,97564.69
2022-12-18T17:30:40.985Z,97573.53
2022-12-18T17:33:08.730Z,97582.81
2022-12-18T17:35:38.095Z,97579.75
2022-12-18T17:38:05.891Z,97581.00
2022-12-18T17:40:34.559Z,97572.72
2022-12-18T17:43:02.717Z,97565.09
2022-12-18T17:45:30.958Z,97557.09
2022-12-18T17:48:00.078Z,97566.75
2022-12-18T17:50:27.911Z,97570.91
2022-12-18T17:52:58.406Z,97569.38
2022-12-18T17:55:26.516Z,97562.47
2022-12-18T17:57:54.326Z,97559.84
2022-12-18T18:00:23.000Z,97561.91
2022-12-18T18:02:51.243Z,97563.56
2022-12-18T18:05:19.101Z,97552.78
2022-12-18T18:07:46.886Z,97556.41
2022-12-18T18:10:16.091Z,97571.63
2022-12-18T18:13:01.140Z,97564.41
2022-12-18T18:15:28.878Z,97571.59
2022-12-18T18:17:56.710Z,97581.13
2022-12-18T18:20:24.539Z,97581.81
2022-12-18T18:22:52.560Z,97592.31
2022-12-18T18:25:22.235Z,97587.06
2022-12-18T18:27:50.761Z,97585.41
2022-12-18T18:30:18.704Z,97590.91
2022-12-18T18:32:48.110Z,97590.47
2022-12-18T18:35:51.952Z,97586.63
2022-12-18T18:38:04.934Z,97591.19
2022-12-18T18:40:34.502Z,97590.59
2022-12-18T18:43:02.337Z,97580.94
2022-12-18T18:45:32.069Z,97586.75
2022-12-18T18:48:00.021Z,97581.25
2022-12-18T18:50:27.797Z,97578.34
2022-12-18T18:52:55.685Z,97580.03
2022-12-18T18:55:25.582Z,97568.69
2022-12-18T18:57:55.183Z,97570.19
2022-12-18T19:00:23.157Z,97562.59
2022-12-18T19:02:53.989Z,97557.63
2022-12-18T19:05:24.163Z,97564.22
2022-12-18T19:07:51.942Z,97559.69
2022-12-18T19:10:19.695Z,97555.41
2022-12-18T19:13:05.229Z,97554.03
2022-12-18T19:15:34.965Z,97553.72
2022-12-18T19:18:03.218Z,97560.91
2022-12-18T19:20:31.270Z,97554.69
2022-12-18T19:22:59.044Z,97538.16
2022-12-18T19:25:40.260Z,97543.38
2022-12-18T19:28:21.904Z,97559.94
2022-12-18T19:30:55.355Z,97565.47
2022-12-18T19:33:42.493Z,97559.94
2022-12-18T19:36:13.115Z,97555.94
2022-12-18T19:38:43.016Z,97549.31
2022-12-18T19:41:13.465Z,97543.94
2022-12-18T19:43:41.879Z,97543.09
2022-12-18T19:46:14.136Z,97548.34
2022-12-18T19:48:44.065Z,97545.84
2022-12-18T19:51:15.967Z,97555.50
2022-12-18T19:53:44.179Z,97546.13
2022-12-18T19:56:13.927Z,97542.00
2022-12-18T19:58:42.049Z,97543.94
2022-12-18T20:01:11.931Z,97544.19
2022-12-18T20:03:41.522Z,97527.94
2022-12-18T20:06:12.445Z,97522.50
2022-12-18T20:08:40.837Z,97518.78
2022-12-18T20:11:09.120Z,97520.47
2022-12-18T20:13:37.357Z,97502.88
2022-12-18T20:16:05.938Z,97530.13
2022-12-18T20:18:35.285Z,97529.28
2022-12-18T20:21:03.463Z,97529.28
2022-12-18T20:23:32.199Z,97524.59
2022-12-18T20:26:01.530Z,97529.84
2022-12-18T20:28:29.536Z,97530.53
2022-12-18T20:31:00.584Z,97537.59
2022-12-18T20:33:28.936Z,97540.59
2022-12-18T20:36:03.778Z,97542.84
2022-12-18T20:38:31.850Z,97523.75
2022-12-18T20:41:02.694Z,97540.34
2022-12-18T20:43:30.603Z,97541.56
2022-12-18T20:46:03.116Z,97532.88
2022-12-18T20:48:31.996Z,97525.56
2022-12-18T20:51:03.640Z,97519.59
2022-12-18T20:53:34.387Z,97527.34
2022-12-18T20:56:02.394Z,97531.50
2022-12-18T20:58:30.228Z,97534.53
2022-12-18T21:01:04.727Z,97534.81
2022-12-18T21:03:32.564Z,97532.03
2022-12-18T21:06:00.410Z,97521.28
2022-12-18T21:08:28.150Z,97511.31
2022-12-18T21:10:57.727Z,97521.69
2022-12-18T21:13:24.676Z,97517.66
2022-12-18T21:15:55.103Z,97523.75
2022-12-18T21:18:22.913Z,97515.44
2022-12-18T21:20:50.713Z,97528.59
2022-12-18T21:23:18.480Z,97522.66
2022-12-18T21:25:46.930Z,97540.84
2022-12-18T21:28:19.027Z,97545.47
2022-12-18T21:30:46.936Z,97550.16
2022-12-18T21:33:14.787Z,97548.34
2022-12-18T21:35:42.521Z,97544.63
2022-12-18T21:38:10.233Z,97546.66
2022-12-18T21:40:40.149Z,97542.13
2022-12-18T21:43:25.611Z,97546.44
2022-12-18T21:45:55.077Z,97541.03
2022-12-18T21:48:24.162Z,97536.75
2022-12-18T21:50:51.951Z,97534.91
2022-12-18T21:53:19.842Z,97533.53
2022-12-18T21:55:47.590Z,97521.25
2022-12-18T21:58:15.660Z,97521.81
2022-12-18T22:00:48.377Z,97529.25
2022-12-18T22:03:19.239Z,97538.66
2022-12-18T22:05:49.650Z,97517.28
2022-12-18T22:08:32.427Z,97525.16
2022-12-18T22:11:00.210Z,97527.06
2022-12-18T22:13:28.384Z,97518.22
2022-12-18T22:15:56.280Z,97512.84
2022-12-18T22:18:25.413Z,97513.53
2022-12-18T22:21:02.320Z,97498.06
2022-12-18T22:23:30.644Z,97502.91
2022-12-18T22:25:58.846Z,97509.94
2022-12-18T22:28:44.124Z,97511.88
2022-12-18T22:31:11.989Z,97511.59
2022-12-18T22:33:41.118Z,97513.97
2022-12-18T22:36:09.929Z,97511.59
2022-12-18T22:38:38.354Z,97507.44
2022-12-18T22:41:06.580Z,97507.19
2022-12-18T22:43:34.478Z,97503.44
2022-12-18T22:46:02.413Z,97512.94
2022-12-18T22:48:30.783Z,97504.41
2022-12-18T22:50:59.994Z,97502.88
2022-12-18T22:53:27.726Z,97503.59
2022-12-18T22:56:02.410Z,97501.09
2022-12-18T22:58:30.382Z,97511.31
2022-12-18T23:00:58.169Z,97509.91
2022-12-18T23:03:25.962Z,97503.03
2022-12-18T23:05:53.905Z,97511.03
2022-12-18T23:08:24.771Z,97512.53
2022-12-18T23:10:53.841Z,97515.31
2022-12-18T23:13:21.981Z,97502.72
2022-12-18T23:15:50.188Z,97524.84
2022-12-18T23:18:18.710Z,97512.28
2022-12-18T23:20:46.786Z,97507.56
2022-12-18T23:23:15.342Z,97517.94
2022-12-18T23:25:44.631Z,97504.94
2022-12-18T23:28:12.388Z,97507.44
2022-12-18T23:30:40.199Z,97505.25
2022-12-18T23:33:07.975Z,97504.13
2022-12-18T23:35:35.895Z,97514.34
2022-12-18T23:38:03.626Z,97513.66
2022-12-18T23:40:31.382Z,97502.75
2022-12-18T23:43:01.896Z,97509.41
2022-12-18T23:45:29.734Z,97499.56
2022-12-18T23:47:57.619Z,97508.00
2022-12-18T23:50:28.911Z,97498.59
2022-12-18T23:53:05.076Z,97482.59
2022-12-18T23:55:34.513Z,97480.34
2022-12-18T23:58:03.945Z,97495.28
